< < Back
Terminal Aerodrome Forecast


Current Version              Previous Versions:   1  2  3  4  5  6  7  8  9  

Terminal Aerodrome Forecast

656
FTUS42 KMLB 040912 AAA
TAFMCO
TAF AMD
KMCO 040912Z 0409/0506 00000KT P6SM SCT120 BKN250
     FM041400 18005KT P6SM FEW030 SCT250
     FM041900 12007KT P6SM VCTS SCT040CB BKN080
      TEMPO 0420/0423 3SM TSRA BKN020CB OVC040
     FM050000 18006KT P6SM SCT040 OVC100=



Latest METAR

600
SAUS70 KWBC 041000 RRI
MTRMCO
METAR KMCO 040953Z 00000KT 10SM BKN140 BKN250 24/22 A3010 RMK AO2 SLP191
T02440222


USA.gov is the U.S. government's official web portal to all federal, state and local government web resources and services.